Time;durP1;ratioP1;P1;durP2;ratioP2;P2;SDS_P1;SDS_P2;PMS_P1;PMS_P2;Temp;Humidity;BMP_temperature;BMP_pressure;BME280_temperature;BME280_humidity;BME280_pressure;Samples;Min_cycle;Max_cycle;Signal;HPM_P1;HPM_P2
2022/07/11 00:00:17;;;;;;;5.82;2.60;;;;;;;;;;5047592;28;20017;-90
2022/07/11 00:02:51;;;;;;;10.25;4.22;;;;;;;;;;5049235;28;20145;-89
2022/07/11 00:05:30;;;;;;;8.20;3.08;;;;;;;;;;5032749;28;20024;-89
2022/07/11 00:07:56;;;;;;;4.00;2.53;;;;;;;;;;5043195;28;20028;-89
2022/07/11 00:10:22;;;;;;;6.68;2.83;;;;;;;;;;5048745;28;20017;-89
2022/07/11 00:12:50;;;;;;;6.75;2.88;;;;;;;;;;5034625;28;20029;-88
2022/07/11 00:15:15;;;;;;;7.38;2.38;;;;;;;;;;5044750;28;20032;-88
2022/07/11 00:17:43;;;;;;;5.43;2.35;;;;;;;;;;5026204;28;20397;-89
2022/07/11 00:20:21;;;;;;;3.22;2.10;;;;;;;;;;5043423;28;20020;-89
2022/07/11 00:22:46;;;;;;;4.70;2.30;;;;;;;;;;5047883;28;20492;-89
2022/07/11 00:25:14;;;;;;;7.43;2.50;;;;;;;;;;5032833;28;20075;-89
2022/07/11 00:27:40;;;;;;;6.82;2.80;;;;;;;;;;5044617;28;20074;-89
2022/07/11 00:30:09;;;;;;;6.35;2.53;;;;;;;;;;5036075;28;20021;-89
2022/07/11 00:32:34;;;;;;;5.55;2.50;;;;;;;;;;5029659;28;20025;-89
2022/07/11 00:35:09;;;;;;;5.35;2.33;;;;;;;;;;5038038;28;20100;-89
2022/07/11 00:37:34;;;;;;;6.55;2.70;;;;;;;;;;5050721;28;20025;-89
2022/07/11 00:39:59;;;;;;;9.25;2.72;;;;;;;;;;5053826;28;20029;-89
2022/07/11 00:42:25;;;;;;;8.10;2.65;;;;;;;;;;5059067;28;20072;-89
2022/07/11 00:44:50;;;;;;;9.10;2.60;;;;;;;;;;5050391;28;20021;-89
2022/07/11 00:47:16;;;;;;;3.88;2.08;;;;;;;;;;5064294;28;20017;-90
2022/07/11 00:49:41;;;;;;;5.10;2.25;;;;;;;;;;5050193;28;20059;-90
2022/07/11 00:52:10;;;;;;;5.43;2.33;;;;;;;;;;5059558;28;20021;-90
2022/07/11 00:54:39;;;;;;;8.52;2.30;;;;;;;;;;5033264;28;20029;-89
2022/07/11 00:57:06;;;;;;;10.32;2.40;;;;;;;;;;5030344;28;20021;-89
2022/07/11 00:59:35;;;;;;;4.32;2.33;;;;;;;;;;5050098;28;20017;-89
2022/07/11 01:02:00;;;;;;;5.22;2.45;;;;;;;;;;5047036;28;20028;-89
2022/07/11 01:04:26;;;;;;;4.95;2.67;;;;;;;;;;5038316;28;20021;-89
2022/07/11 01:06:51;;;;;;;8.85;2.65;;;;;;;;;;5047178;28;20079;-89
2022/07/11 01:09:17;;;;;;;5.35;2.78;;;;;;;;;;5046484;28;20374;-89
2022/07/11 01:11:42;;;;;;;6.00;2.38;;;;;;;;;;5047693;28;20032;-90
2022/07/11 01:14:08;;;;;;;3.55;2.13;;;;;;;;;;5050907;28;20082;-90
2022/07/11 01:16:33;;;;;;;4.00;2.47;;;;;;;;;;5032611;28;20045;-90
2022/07/11 01:18:59;;;;;;;4.32;2.28;;;;;;;;;;5047645;28;20099;-90
2022/07/11 01:21:24;;;;;;;7.55;2.42;;;;;;;;;;5043916;28;20074;-90
2022/07/11 01:23:51;;;;;;;6.75;2.97;;;;;;;;;;5038359;28;20025;-90
2022/07/11 01:26:20;;;;;;;5.57;2.33;;;;;;;;;;5047822;28;20025;-89
2022/07/11 01:28:46;;;;;;;3.87;2.40;;;;;;;;;;5048544;28;20031;-90
2022/07/11 01:31:17;;;;;;;5.82;2.85;;;;;;;;;;5039751;28;20389;-90
2022/07/11 01:33:46;;;;;;;7.78;2.70;;;;;;;;;;5040351;28;20025;-90
2022/07/11 01:36:12;;;;;;;5.32;2.63;;;;;;;;;;5039629;28;20208;-90
2022/07/11 01:38:41;;;;;;;5.32;2.55;;;;;;;;;;5036922;28;20029;-90
2022/07/11 01:41:06;;;;;;;4.95;2.65;;;;;;;;;;5035057;28;20488;-89
2022/07/11 01:43:34;;;;;;;4.25;2.22;;;;;;;;;;5034016;28;20028;-89
2022/07/11 01:46:11;;;;;;;11.50;2.80;;;;;;;;;;5036253;28;20492;-89
2022/07/11 01:52:21;;;;;;;6.88;2.72;;;;;;;;;;4967287;28;20129;-89
2022/07/11 02:03:26;;;;;;;5.90;3.15;;;;;;;;;;5007636;28;20054;-66
2022/07/11 02:05:51;;;;;;;6.20;3.23;;;;;;;;;;5009042;28;20026;-66
2022/07/11 02:08:17;;;;;;;10.60;3.50;;;;;;;;;;5009905;28;20685;-66
2022/07/11 02:10:42;;;;;;;8.90;3.30;;;;;;;;;;5010952;28;20458;-66
2022/07/11 02:13:09;;;;;;;6.90;3.17;;;;;;;;;;5011887;28;20022;-67
2022/07/11 02:15:34;;;;;;;9.02;3.63;;;;;;;;;;5020172;28;20268;-66
2022/07/11 02:17:59;;;;;;;9.88;3.58;;;;;;;;;;5014320;28;20459;-66
2022/07/11 02:20:25;;;;;;;7.27;3.60;;;;;;;;;;5011737;28;20088;-67
2022/07/11 02:22:50;;;;;;;11.07;4.88;;;;;;;;;;5019303;28;20030;-67
2022/07/11 02:25:15;;;;;;;16.00;4.07;;;;;;;;;;5019334;28;20014;-67
2022/07/11 02:27:41;;;;;;;4.97;3.40;;;;;;;;;;5017580;28;20041;-67
2022/07/11 02:30:07;;;;;;;10.40;3.15;;;;;;;;;;5021167;28;20026;-67
2022/07/11 02:32:32;;;;;;;8.50;4.18;;;;;;;;;;5008689;28;20614;-67
2022/07/11 02:34:58;;;;;;;12.43;4.22;;;;;;;;;;5009017;28;20092;-67
2022/07/11 02:37:23;;;;;;;6.40;3.57;;;;;;;;;;5018714;28;20025;-66
2022/07/11 02:39:48;;;;;;;11.43;4.30;;;;;;;;;;5015445;28;20277;-67
2022/07/11 02:42:13;;;;;;;10.53;3.77;;;;;;;;;;5009331;28;20022;-67
2022/07/11 02:44:39;;;;;;;9.13;3.60;;;;;;;;;;5013378;28;20272;-67
2022/07/11 02:47:04;;;;;;;7.93;4.15;;;;;;;;;;5015281;28;20049;-67
2022/07/11 02:49:30;;;;;;;14.13;4.13;;;;;;;;;;5016958;28;20056;-67
2022/07/11 02:51:55;;;;;;;13.18;3.80;;;;;;;;;;5016178;28;20378;-67
2022/07/11 02:54:21;;;;;;;8.13;3.92;;;;;;;;;;5013563;28;20022;-67
2022/07/11 02:56:46;;;;;;;6.47;3.47;;;;;;;;;;5018568;28;20685;-67
2022/07/11 02:59:11;;;;;;;15.43;3.73;;;;;;;;;;5018213;28;20269;-67
2022/07/11 03:01:36;;;;;;;11.40;3.80;;;;;;;;;;5013642;28;20784;-67
2022/07/11 03:04:01;;;;;;;11.30;3.37;;;;;;;;;;4991638;28;20273;-67
2022/07/11 03:06:26;;;;;;;6.37;3.80;;;;;;;;;;5013564;28;20664;-67
2022/07/11 03:08:51;;;;;;;9.67;4.77;;;;;;;;;;5015226;28;20279;-67
2022/07/11 03:11:19;;;;;;;9.30;3.77;;;;;;;;;;5011252;28;20268;-67
2022/07/11 03:13:44;;;;;;;11.85;3.85;;;;;;;;;;5019996;28;20322;-67
2022/07/11 03:16:09;;;;;;;8.00;3.70;;;;;;;;;;5013126;28;20037;-67
2022/07/11 03:18:34;;;;;;;11.17;3.83;;;;;;;;;;5014756;28;20021;-67
2022/07/11 03:21:00;;;;;;;8.50;4.57;;;;;;;;;;5007524;28;20021;-67
2022/07/11 03:23:25;;;;;;;8.27;3.67;;;;;;;;;;5016769;28;20382;-67
2022/07/11 03:25:50;;;;;;;9.60;3.57;;;;;;;;;;5017881;28;20272;-67
2022/07/11 03:28:16;;;;;;;16.27;5.05;;;;;;;;;;5012439;28;20779;-67
2022/07/11 03:30:41;;;;;;;7.97;3.33;;;;;;;;;;5016318;28;20155;-67
2022/07/11 03:33:06;;;;;;;12.33;4.53;;;;;;;;;;5013050;28;20645;-67
2022/07/11 03:35:40;;;;;;;11.33;3.70;;;;;;;;;;5014114;28;20049;-67
2022/07/11 03:38:05;;;;;;;11.05;4.22;;;;;;;;;;5010836;28;20279;-67
2022/07/11 03:40:31;;;;;;;9.10;4.17;;;;;;;;;;5014135;28;20233;-67
2022/07/11 03:42:56;;;;;;;10.07;3.85;;;;;;;;;;5015862;28;20269;-67
2022/07/11 03:45:21;;;;;;;15.83;4.40;;;;;;;;;;5013718;28;20021;-67
2022/07/11 03:47:48;;;;;;;19.20;4.43;;;;;;;;;;5014157;28;20282;-67
2022/07/11 03:50:13;;;;;;;12.00;4.60;;;;;;;;;;5008555;28;20044;-67
2022/07/11 03:52:38;;;;;;;10.70;4.63;;;;;;;;;;5014971;28;20025;-67
2022/07/11 03:55:04;;;;;;;13.33;4.40;;;;;;;;;;5021941;28;20034;-67
2022/07/11 03:57:29;;;;;;;16.20;4.57;;;;;;;;;;5012778;28;20377;-67
2022/07/11 03:59:54;;;;;;;9.30;3.97;;;;;;;;;;5012576;28;20072;-67
2022/07/11 04:02:19;;;;;;;8.73;4.50;;;;;;;;;;5020569;28;20048;-67
2022/07/11 04:04:44;;;;;;;14.40;4.37;;;;;;;;;;5010657;28;20288;-67
2022/07/11 04:07:10;;;;;;;10.05;4.60;;;;;;;;;;5009313;28;20348;-67
2022/07/11 04:09:35;;;;;;;6.85;3.50;;;;;;;;;;5017837;28;20049;-67
2022/07/11 04:12:00;;;;;;;12.13;4.30;;;;;;;;;;5011581;28;20056;-67
2022/07/11 04:14:25;;;;;;;12.23;4.10;;;;;;;;;;5019922;28;20370;-67
2022/07/11 04:16:51;;;;;;;13.90;3.93;;;;;;;;;;5013205;28;20346;-67
2022/07/11 04:19:16;;;;;;;12.77;4.25;;;;;;;;;;5009360;28;20120;-67
2022/07/11 04:21:41;;;;;;;12.70;5.10;;;;;;;;;;5011206;28;20102;-67
2022/07/11 04:24:07;;;;;;;12.80;4.33;;;;;;;;;;5015566;28;20532;-67
2022/07/11 04:26:32;;;;;;;8.47;4.00;;;;;;;;;;5016589;28;20272;-67
2022/07/11 04:28:57;;;;;;;14.87;4.00;;;;;;;;;;5013593;28;20602;-67
2022/07/11 04:31:22;;;;;;;25.27;3.87;;;;;;;;;;5013958;28;20272;-67
2022/07/11 04:33:47;;;;;;;9.97;4.70;;;;;;;;;;5016738;28;20491;-67
2022/07/11 04:36:12;;;;;;;7.87;3.27;;;;;;;;;;5021958;28;20288;-68
2022/07/11 04:38:38;;;;;;;9.10;3.90;;;;;;;;;;5013268;28;20077;-67
2022/07/11 04:41:03;;;;;;;15.57;4.00;;;;;;;;;;5018315;28;20277;-66
2022/07/11 04:43:28;;;;;;;16.08;4.18;;;;;;;;;;5022146;28;20272;-67
2022/07/11 04:45:53;;;;;;;8.65;3.58;;;;;;;;;;5017355;28;20021;-67
2022/07/11 04:48:19;;;;;;;12.65;3.50;;;;;;;;;;5016780;28;20041;-67
2022/07/11 04:50:47;;;;;;;11.40;3.37;;;;;;;;;;5020752;28;20601;-67
2022/07/11 04:53:12;;;;;;;9.60;3.97;;;;;;;;;;5020401;28;20653;-67
2022/07/11 04:55:40;;;;;;;10.13;3.60;;;;;;;;;;5015165;28;20017;-67
2022/07/11 04:58:06;;;;;;;9.32;3.58;;;;;;;;;;5018928;28;20358;-66
2022/07/11 05:00:31;;;;;;;11.40;3.78;;;;;;;;;;5018883;28;20028;-67
2022/07/11 05:02:56;;;;;;;12.20;4.35;;;;;;;;;;5019362;28;20484;-66
2022/07/11 05:05:23;;;;;;;15.43;3.92;;;;;;;;;;5021208;28;20109;-66
2022/07/11 05:07:48;;;;;;;8.57;3.63;;;;;;;;;;5015096;28;20128;-66
2022/07/11 05:10:14;;;;;;;9.23;3.50;;;;;;;;;;5021682;28;20030;-66
2022/07/11 05:12:39;;;;;;;13.20;3.47;;;;;;;;;;5010558;28;20649;-66
2022/07/11 05:15:04;;;;;;;10.57;3.35;;;;;;;;;;5013318;28;20281;-67
2022/07/11 05:17:30;;;;;;;11.15;3.60;;;;;;;;;;5016029;28;20021;-66
2022/07/11 05:19:55;;;;;;;12.68;3.85;;;;;;;;;;5015299;28;20026;-66
2022/07/11 05:22:21;;;;;;;6.78;3.78;;;;;;;;;;5017700;28;20022;-66
2022/07/11 05:24:46;;;;;;;9.07;4.03;;;;;;;;;;4998393;28;20053;-66
2022/07/11 05:27:11;;;;;;;10.60;4.03;;;;;;;;;;5014058;28;20032;-66
2022/07/11 05:29:36;;;;;;;12.27;3.90;;;;;;;;;;5018597;28;20064;-67
2022/07/11 05:32:01;;;;;;;6.93;3.17;;;;;;;;;;5010922;28;20021;-66
2022/07/11 05:34:27;;;;;;;14.05;4.05;;;;;;;;;;5013765;28;20284;-67
2022/07/11 05:36:53;;;;;;;16.97;3.87;;;;;;;;;;5007179;28;20026;-66
2022/07/11 05:39:18;;;;;;;9.00;3.78;;;;;;;;;;5017314;28;20340;-66
2022/07/11 05:41:43;;;;;;;16.73;5.07;;;;;;;;;;5017612;28;20105;-66
2022/07/11 05:44:08;;;;;;;11.60;4.20;;;;;;;;;;5018533;28;20647;-66
2022/07/11 05:46:36;;;;;;;15.25;4.28;;;;;;;;;;5022932;28;20273;-66
2022/07/11 05:49:01;;;;;;;17.08;3.97;;;;;;;;;;5013064;28;20020;-66
2022/07/11 05:51:26;;;;;;;14.60;4.37;;;;;;;;;;5015635;28;21315;-66
2022/07/11 05:53:51;;;;;;;15.40;4.50;;;;;;;;;;5017712;28;20280;-66
2022/07/11 05:56:16;;;;;;;8.83;3.53;;;;;;;;;;5008729;28;20021;-66
2022/07/11 05:58:41;;;;;;;11.70;3.97;;;;;;;;;;5013623;28;20317;-66
2022/07/11 06:01:08;;;;;;;7.97;3.80;;;;;;;;;;5010860;28;20293;-66
2022/07/11 06:03:33;;;;;;;3.95;2.63;;;;;;;;;;5014222;28;20684;-66
2022/07/11 06:05:58;;;;;;;11.07;3.50;;;;;;;;;;5005998;28;20036;-66
2022/07/11 06:08:42;;;;;;;14.53;4.03;;;;;;;;;;5014661;28;20276;-66
2022/07/11 06:11:14;;;;;;;10.48;3.55;;;;;;;;;;5015843;28;20018;-66
2022/07/11 06:13:39;;;;;;;10.43;3.42;;;;;;;;;;5014897;28;20025;-66
2022/07/11 06:16:05;;;;;;;11.32;3.42;;;;;;;;;;5014080;28;20385;-66
2022/07/11 06:18:30;;;;;;;8.57;3.05;;;;;;;;;;5011201;28;20032;-66
2022/07/11 06:20:55;;;;;;;7.37;2.17;;;;;;;;;;5023846;28;20481;-67
2022/07/11 06:23:20;;;;;;;4.37;2.20;;;;;;;;;;5018721;28;20072;-66
2022/07/11 06:25:46;;;;;;;7.07;2.50;;;;;;;;;;5010412;28;20497;-66
2022/07/11 06:28:11;;;;;;;9.30;2.33;;;;;;;;;;5012644;28;20363;-66
2022/07/11 06:30:36;;;;;;;3.95;1.60;;;;;;;;;;5016166;28;20280;-66
2022/07/11 06:33:03;;;;;;;6.45;1.65;;;;;;;;;;5015002;28;20033;-66
2022/07/11 06:35:28;;;;;;;5.07;1.42;;;;;;;;;;5015239;28;20025;-66
2022/07/11 06:37:53;;;;;;;4.50;1.90;;;;;;;;;;5015016;28;20022;-67
2022/07/11 06:40:18;;;;;;;5.80;1.50;;;;;;;;;;5012825;28;20025;-67
2022/07/11 06:42:44;;;;;;;3.95;1.40;;;;;;;;;;5013614;28;20049;-67
2022/07/11 06:45:09;;;;;;;4.70;1.30;;;;;;;;;;5011065;28;20154;-67
2022/07/11 06:47:34;;;;;;;9.55;1.75;;;;;;;;;;5011775;28;20067;-67
2022/07/11 06:49:59;;;;;;;6.10;1.53;;;;;;;;;;5020387;28;20233;-67
2022/07/11 06:52:25;;;;;;;9.43;1.40;;;;;;;;;;5013943;28;20358;-66
2022/07/11 06:54:50;;;;;;;6.40;1.52;;;;;;;;;;5017678;28;20285;-66
2022/07/11 06:57:15;;;;;;;5.20;1.93;;;;;;;;;;5011467;28;20109;-67
2022/07/11 06:59:40;;;;;;;5.65;1.92;;;;;;;;;;5019537;28;20676;-67
2022/07/11 07:02:05;;;;;;;7.30;1.57;;;;;;;;;;5016554;28;20048;-66
2022/07/11 07:04:30;;;;;;;6.75;1.83;;;;;;;;;;5010251;28;20046;-66
2022/07/11 07:06:56;;;;;;;4.97;1.80;;;;;;;;;;5016584;28;20021;-66
2022/07/11 07:09:21;;;;;;;6.13;2.33;;;;;;;;;;5021013;28;20272;-66
2022/07/11 07:11:47;;;;;;;3.27;1.73;;;;;;;;;;5008984;28;20693;-66
2022/07/11 07:14:12;;;;;;;3.85;1.70;;;;;;;;;;5012827;28;20544;-66
2022/07/11 07:16:39;;;;;;;2.60;1.50;;;;;;;;;;5011264;28;20100;-66
2022/07/11 07:19:04;;;;;;;5.78;1.55;;;;;;;;;;5016376;28;20045;-66
2022/07/11 07:21:30;;;;;;;6.55;1.73;;;;;;;;;;5015622;28;20046;-66
2022/07/11 07:23:55;;;;;;;6.10;1.30;;;;;;;;;;5016479;28;20391;-66
2022/07/11 07:26:20;;;;;;;3.10;1.30;;;;;;;;;;5006661;28;20284;-66
2022/07/11 07:28:46;;;;;;;1.87;1.20;;;;;;;;;;5012572;28;20025;-65
2022/07/11 07:31:11;;;;;;;2.08;1.08;;;;;;;;;;5003496;28;20346;-66
2022/07/11 07:33:37;;;;;;;4.40;1.63;;;;;;;;;;5013827;28;20013;-66
2022/07/11 07:36:02;;;;;;;5.57;2.23;;;;;;;;;;5008682;28;20026;-67
2022/07/11 07:38:27;;;;;;;5.05;2.72;;;;;;;;;;5017268;28;20268;-67
2022/07/11 07:40:52;;;;;;;6.77;3.10;;;;;;;;;;5018299;28;20097;-66
2022/07/11 07:43:17;;;;;;;7.20;3.47;;;;;;;;;;5012320;28;20021;-66
2022/07/11 07:45:42;;;;;;;7.00;3.73;;;;;;;;;;5013727;28;20289;-65
2022/07/11 07:48:08;;;;;;;9.63;5.23;;;;;;;;;;5015998;28;20330;-66
2022/07/11 07:50:33;;;;;;;5.40;2.70;;;;;;;;;;5014616;28;20761;-66
2022/07/11 07:52:58;;;;;;;5.93;2.88;;;;;;;;;;5013709;28;20303;-66
2022/07/11 07:55:23;;;;;;;7.15;4.43;;;;;;;;;;5018173;28;20018;-66
2022/07/11 07:57:49;;;;;;;12.95;5.00;;;;;;;;;;5011161;28;20163;-66
2022/07/11 08:03:03;;;;;;;14.18;7.70;;;;;;;;;;5010737;28;20087;-66
2022/07/11 08:05:28;;;;;;;;;;;;;;;;;;5014151;28;20088;-66
2022/07/11 08:07:53;;;;;;;13.18;6.20;;;;;;;;;;5013014;28;20173;-66
2022/07/11 08:10:18;;;;;;;21.53;9.00;;;;;;;;;;5018085;28;20614;-66
2022/07/11 08:12:44;;;;;;;18.13;9.50;;;;;;;;;;5016989;28;20018;-66
2022/07/11 08:15:10;;;;;;;28.17;11.75;;;;;;;;;;5023079;28;20021;-66
2022/07/11 08:17:35;;;;;;;21.63;11.60;;;;;;;;;;5020737;28;20477;-66
2022/07/11 08:20:01;;;;;;;21.77;11.88;;;;;;;;;;5019594;28;20032;-66
2022/07/11 08:22:26;;;;;;;26.38;14.25;;;;;;;;;;5019252;28;20001;-66
2022/07/11 08:24:51;;;;;;;25.27;14.57;;;;;;;;;;5014902;28;20065;-66
2022/07/11 08:27:16;;;;;;;24.23;14.80;;;;;;;;;;5014444;28;20053;-66
2022/07/11 08:29:42;;;;;;;25.47;12.80;;;;;;;;;;5016295;28;20113;-66
2022/07/11 08:32:07;;;;;;;21.87;13.13;;;;;;;;;;5009947;28;20276;-66
2022/07/11 08:34:32;;;;;;;21.33;12.15;;;;;;;;;;5008873;28;20652;-66
2022/07/11 08:36:57;;;;;;;21.60;12.55;;;;;;;;;;5014861;28;20026;-67
2022/07/11 08:39:23;;;;;;;21.10;12.23;;;;;;;;;;5020987;28;20454;-67
2022/07/11 08:41:49;;;;;;;22.40;12.63;;;;;;;;;;5013407;28;20025;-66
2022/07/11 08:44:15;;;;;;;21.00;12.70;;;;;;;;;;5016361;28;20304;-66
2022/07/11 08:46:43;;;;;;;25.85;14.20;;;;;;;;;;5012000;28;20431;-66
2022/07/11 08:49:08;;;;;;;23.55;15.02;;;;;;;;;;5018149;28;20108;-66
2022/07/11 08:51:36;;;;;;;16.27;11.77;;;;;;;;;;5018555;28;20444;-67
2022/07/11 08:54:01;;;;;;;19.35;12.38;;;;;;;;;;5012173;28;20797;-68
2022/07/11 08:56:27;;;;;;;24.70;13.37;;;;;;;;;;5013713;28;20017;-66
2022/07/11 08:58:52;;;;;;;22.75;12.93;;;;;;;;;;5013293;28;20288;-67
2022/07/11 09:01:19;;;;;;;19.75;12.05;;;;;;;;;;5010455;28;20037;-67
2022/07/11 09:03:45;;;;;;;19.60;12.88;;;;;;;;;;5016899;28;20080;-67
2022/07/11 09:06:11;;;;;;;18.63;12.25;;;;;;;;;;5017713;28;20445;-67
2022/07/11 09:08:36;;;;;;;17.98;12.88;;;;;;;;;;5020111;28;20033;-66
2022/07/11 09:11:02;;;;;;;20.55;14.32;;;;;;;;;;5003851;28;20028;-66
2022/07/11 09:13:30;;;;;;;18.02;12.38;;;;;;;;;;5018787;28;20028;-66
2022/07/11 09:16:00;;;;;;;20.00;12.27;;;;;;;;;;5015344;28;20029;-66
2022/07/11 09:18:28;;;;;;;23.40;12.20;;;;;;;;;;5012490;28;20482;-66
2022/07/11 09:26:21;;;;;;;21.63;11.98;;;;;;;;;;5013196;28;20099;-66
2022/07/11 09:29:00;;;;;;;23.90;13.50;;;;;;;;;;5017414;28;20670;-67
2022/07/11 09:31:26;;;;;;;18.58;12.38;;;;;;;;;;5014619;28;20023;-66
2022/07/11 09:33:58;;;;;;;22.63;13.70;;;;;;;;;;5016920;28;20061;-66
2022/07/11 09:36:33;;;;;;;26.27;13.20;;;;;;;;;;5015070;28;20091;-66
2022/07/11 09:39:00;;;;;;;19.60;12.32;;;;;;;;;;5020304;28;20017;-66
2022/07/11 09:41:26;;;;;;;24.25;14.30;;;;;;;;;;5020661;28;20529;-65
2022/07/11 09:43:51;;;;;;;26.20;14.80;;;;;;;;;;5015967;28;20117;-66
2022/07/11 09:46:23;;;;;;;22.27;14.53;;;;;;;;;;5015238;28;20025;-67
2022/07/11 09:48:48;;;;;;;30.42;15.68;;;;;;;;;;5017554;28;20276;-67
2022/07/11 09:51:19;;;;;;;20.37;13.67;;;;;;;;;;5018705;28;20028;-66
2022/07/11 09:53:56;;;;;;;24.80;14.25;;;;;;;;;;5008360;28;20288;-66
2022/07/11 09:56:35;;;;;;;25.80;15.75;;;;;;;;;;5014564;28;20022;-66
2022/07/11 09:59:02;;;;;;;21.63;14.30;;;;;;;;;;5016001;28;20026;-67
2022/07/11 10:01:28;;;;;;;25.50;15.85;;;;;;;;;;5015481;28;20113;-67
2022/07/11 10:03:54;;;;;;;27.88;14.95;;;;;;;;;;5017277;28;20482;-67
2022/07/11 10:06:19;;;;;;;25.30;15.90;;;;;;;;;;5015499;28;20021;-67
2022/07/11 10:08:44;;;;;;;25.70;14.67;;;;;;;;;;5017781;28;20036;-67
2022/07/11 10:11:11;;;;;;;23.97;14.90;;;;;;;;;;5010814;28;20014;-67
2022/07/11 10:13:36;;;;;;;21.60;12.98;;;;;;;;;;5007613;28;20289;-65
2022/07/11 10:16:03;;;;;;;17.63;10.48;;;;;;;;;;5013475;28;20112;-66
2022/07/11 10:18:33;;;;;;;17.77;11.77;;;;;;;;;;5011438;28;20076;-66
2022/07/11 10:21:01;;;;;;;16.77;12.07;;;;;;;;;;5009723;28;20118;-66
2022/07/11 10:23:40;;;;;;;18.45;12.75;;;;;;;;;;5022032;28;20337;-66
2022/07/11 10:26:19;;;;;;;24.67;12.40;;;;;;;;;;5009443;28;20026;-66
2022/07/11 10:28:49;;;;;;;21.27;12.85;;;;;;;;;;5014304;28;20017;-66
2022/07/11 10:31:19;;;;;;;25.10;12.88;;;;;;;;;;5015152;28;20084;-67
2022/07/11 10:33:59;;;;;;;22.47;13.77;;;;;;;;;;5010009;28;20040;-67
2022/07/11 10:36:27;;;;;;;18.08;11.70;;;;;;;;;;5012230;28;20649;-67
2022/07/11 10:39:11;;;;;;;19.15;12.68;;;;;;;;;;5008698;28;20021;-67
2022/07/11 10:41:36;;;;;;;15.45;11.38;;;;;;;;;;5011809;28;20014;-67
2022/07/11 10:44:01;;;;;;;19.13;11.53;;;;;;;;;;5012436;28;20350;-67
2022/07/11 10:46:27;;;;;;;17.73;12.20;;;;;;;;;;5009882;28;20609;-67
2022/07/11 10:48:55;;;;;;;19.30;13.55;;;;;;;;;;5017157;28;20315;-67
2022/07/11 10:51:26;;;;;;;22.40;13.40;;;;;;;;;;5014502;28;20550;-66
2022/07/11 10:53:52;;;;;;;21.02;13.80;;;;;;;;;;5013109;28;20104;-67
2022/07/11 10:56:43;;;;;;;18.58;13.10;;;;;;;;;;5014821;28;20022;-66
2022/07/11 10:59:14;;;;;;;21.85;13.75;;;;;;;;;;5010408;28;20466;-67
2022/07/11 11:01:57;;;;;;;25.13;14.25;;;;;;;;;;5016676;28;20018;-67
2022/07/11 11:04:40;;;;;;;21.60;15.15;;;;;;;;;;5018050;28;20051;-66
2022/07/11 11:07:06;;;;;;;21.13;15.07;;;;;;;;;;5014053;28;20018;-66
2022/07/11 11:09:40;;;;;;;20.60;13.87;;;;;;;;;;5013168;28;20479;-66
2022/07/11 11:12:05;;;;;;;22.20;14.07;;;;;;;;;;5013038;28;20026;-66
2022/07/11 11:14:30;;;;;;;33.00;15.40;;;;;;;;;;5009945;28;20379;-67
2022/07/11 11:17:17;;;;;;;27.73;15.73;;;;;;;;;;5014149;28;20763;-66
2022/07/11 11:19:48;;;;;;;26.85;15.85;;;;;;;;;;5005390;28;20022;-66
2022/07/11 11:22:14;;;;;;;22.88;15.15;;;;;;;;;;5012533;28;20029;-67
2022/07/11 11:24:40;;;;;;;22.98;14.70;;;;;;;;;;5010699;28;20026;-66
2022/07/11 11:27:13;;;;;;;25.25;15.52;;;;;;;;;;5015318;28;20152;-65
2022/07/11 11:29:40;;;;;;;25.17;14.88;;;;;;;;;;5007598;28;20112;-66
2022/07/11 11:32:06;;;;;;;22.42;13.65;;;;;;;;;;5018649;28;20025;-67
2022/07/11 11:34:32;;;;;;;19.13;13.03;;;;;;;;;;5013391;28;20029;-67
2022/07/11 11:36:59;;;;;;;19.30;13.38;;;;;;;;;;5016670;28;20764;-67
2022/07/11 11:39:25;;;;;;;18.25;12.82;;;;;;;;;;5017078;28;20018;-66
2022/07/11 11:41:50;;;;;;;20.85;13.27;;;;;;;;;;5009254;28;20094;-66
2022/07/11 11:44:16;;;;;;;19.23;12.67;;;;;;;;;;5010136;28;20014;-66
2022/07/11 11:46:41;;;;;;;18.83;12.80;;;;;;;;;;5019060;28;20269;-67
2022/07/11 11:49:06;;;;;;;19.00;12.70;;;;;;;;;;5014112;28;20277;-67
2022/07/11 11:51:32;;;;;;;17.38;12.13;;;;;;;;;;5011604;28;20036;-67
2022/07/11 11:54:01;;;;;;;17.67;12.00;;;;;;;;;;5017227;28;20029;-67
2022/07/11 11:56:28;;;;;;;20.67;12.70;;;;;;;;;;5007462;28;20028;-67
2022/07/11 11:58:56;;;;;;;21.23;13.45;;;;;;;;;;5023206;28;20096;-67
2022/07/11 12:01:26;;;;;;;24.88;13.68;;;;;;;;;;5013360;28;20048;-67
2022/07/11 12:03:54;;;;;;;19.58;13.77;;;;;;;;;;5018480;28;20050;-67
2022/07/11 12:06:29;;;;;;;23.48;14.07;;;;;;;;;;5014255;28;20478;-67
2022/07/11 12:08:58;;;;;;;19.83;12.75;;;;;;;;;;5010629;28;20375;-66
2022/07/11 12:11:23;;;;;;;33.53;12.85;;;;;;;;;;5004493;28;20021;-66
2022/07/11 12:13:54;;;;;;;17.48;12.70;;;;;;;;;;5016338;28;20395;-67
2022/07/11 12:19:04;;;;;;;12.90;9.73;;;;;;;;;;5011140;28;20029;-66
2022/07/11 12:21:29;;;;;;;18.10;11.32;;;;;;;;;;5009035;28;20009;-67
2022/07/11 12:24:03;;;;;;;16.23;10.20;;;;;;;;;;5009056;28;20018;-67
2022/07/11 12:26:32;;;;;;;14.93;10.27;;;;;;;;;;5009500;28;20047;-67
2022/07/11 12:29:05;;;;;;;16.15;10.07;;;;;;;;;;5011782;28;20031;-67
2022/07/11 12:31:40;;;;;;;18.17;9.40;;;;;;;;;;5020101;28;20017;-67
2022/07/11 12:34:05;;;;;;;12.95;9.05;;;;;;;;;;5015438;28;20479;-67
2022/07/11 12:36:33;;;;;;;13.23;8.77;;;;;;;;;;5007106;28;20210;-66
2022/07/11 12:38:58;;;;;;;11.40;6.20;;;;;;;;;;5007609;28;20022;-66
2022/07/11 12:41:23;;;;;;;7.37;5.33;;;;;;;;;;5009290;28;20481;-66
2022/07/11 12:46:36;;;;;;;7.22;5.13;;;;;;;;;;5012473;28;20024;-67
2022/07/11 12:49:03;;;;;;;12.55;5.70;;;;;;;;;;5016959;28;20034;-67
2022/07/11 12:51:28;;;;;;;11.20;4.55;;;;;;;;;;5012660;28;20108;-67
2022/07/11 12:54:08;;;;;;;5.55;3.72;;;;;;;;;;5015654;28;20109;-67
2022/07/11 12:56:33;;;;;;;5.93;3.55;;;;;;;;;;4993114;28;20112;-67
2022/07/11 12:58:58;;;;;;;4.75;2.70;;;;;;;;;;5011292;28;20040;-68
2022/07/11 13:01:24;;;;;;;8.95;3.65;;;;;;;;;;5018339;28;20049;-66
2022/07/11 13:03:49;;;;;;;11.18;3.00;;;;;;;;;;5010656;28;20030;-67
2022/07/11 13:06:15;;;;;;;4.85;3.67;;;;;;;;;;5002751;28;20025;-67
2022/07/11 13:08:45;;;;;;;7.13;4.57;;;;;;;;;;5015417;28;20101;-67
2022/07/11 13:11:12;;;;;;;6.60;3.50;;;;;;;;;;5026871;28;20026;-67
2022/07/11 13:13:37;;;;;;;5.18;3.88;;;;;;;;;;5017965;28;20036;-66
2022/07/11 13:16:04;;;;;;;6.87;4.00;;;;;;;;;;5014997;28;20097;-66
2022/07/11 13:18:29;;;;;;;4.13;3.35;;;;;;;;;;5022504;28;20671;-67
2022/07/11 13:20:55;;;;;;;7.77;4.20;;;;;;;;;;5013430;28;20064;-67
2022/07/11 13:23:20;;;;;;;5.28;3.80;;;;;;;;;;5017292;28;20279;-66
2022/07/11 13:25:45;;;;;;;3.72;2.50;;;;;;;;;;5021957;28;20018;-66
2022/07/11 13:28:11;;;;;;;4.67;3.10;;;;;;;;;;5013244;28;20030;-67
2022/07/11 13:30:37;;;;;;;4.40;3.10;;;;;;;;;;5012583;28;20269;-67
2022/07/11 13:33:03;;;;;;;5.40;3.05;;;;;;;;;;5015313;28;20468;-67
2022/07/11 13:35:28;;;;;;;6.88;4.07;;;;;;;;;;5009713;28;20124;-67
2022/07/11 13:37:53;;;;;;;5.05;3.72;;;;;;;;;;5019406;28;20045;-67
2022/07/11 13:40:20;;;;;;;10.13;4.28;;;;;;;;;;5018722;28;20022;-67
2022/07/11 13:42:46;;;;;;;5.93;3.92;;;;;;;;;;5016440;28;20437;-67
2022/07/11 13:45:11;;;;;;;8.50;3.95;;;;;;;;;;5013957;28;20013;-67
2022/07/11 13:47:37;;;;;;;6.45;4.32;;;;;;;;;;5015098;28;20040;-67
2022/07/11 13:50:02;;;;;;;8.80;3.90;;;;;;;;;;5016871;28;20049;-66
2022/07/11 13:52:28;;;;;;;6.47;3.60;;;;;;;;;;5013443;28;20486;-66
2022/07/11 13:54:53;;;;;;;6.53;4.80;;;;;;;;;;5015157;28;20022;-66
2022/07/11 13:57:19;;;;;;;21.02;10.13;;;;;;;;;;5011821;28;20018;-67
2022/07/11 13:59:45;;;;;;;15.20;10.80;;;;;;;;;;5019973;28;20048;-67
2022/07/11 14:02:10;;;;;;;15.80;11.75;;;;;;;;;;5013261;28;20075;-67
2022/07/11 14:04:35;;;;;;;15.77;11.80;;;;;;;;;;5016247;28;20501;-67
2022/07/11 14:07:00;;;;;;;18.07;10.60;;;;;;;;;;5014460;28;20132;-67
2022/07/11 14:09:27;;;;;;;23.20;11.57;;;;;;;;;;5015241;28;20489;-67
2022/07/11 14:11:52;;;;;;;15.77;11.40;;;;;;;;;;5014463;28;20047;-67
2022/07/11 14:14:18;;;;;;;17.27;12.88;;;;;;;;;;5017697;28;20500;-67
2022/07/11 14:16:43;;;;;;;22.70;11.52;;;;;;;;;;5019068;28;20020;-67
2022/07/11 14:19:10;;;;;;;17.75;12.13;;;;;;;;;;5017282;28;20025;-67
2022/07/11 14:21:36;;;;;;;21.13;12.50;;;;;;;;;;5019330;28;20018;-66
2022/07/11 14:24:01;;;;;;;21.63;12.73;;;;;;;;;;5017847;28;20088;-66
2022/07/11 14:26:26;;;;;;;16.13;11.90;;;;;;;;;;5015729;28;20028;-67
2022/07/11 14:28:51;;;;;;;19.55;11.95;;;;;;;;;;5015562;28;20018;-67
2022/07/11 14:31:17;;;;;;;16.42;11.50;;;;;;;;;;5019765;28;20415;-66
2022/07/11 14:33:42;;;;;;;18.47;11.00;;;;;;;;;;5011651;28;20032;-66
2022/07/11 14:36:07;;;;;;;16.38;10.60;;;;;;;;;;5012642;28;20022;-67
2022/07/11 14:38:33;;;;;;;13.40;10.27;;;;;;;;;;5011539;28;20045;-66
2022/07/11 14:40:58;;;;;;;16.42;11.20;;;;;;;;;;5014207;28;20276;-67
2022/07/11 14:43:24;;;;;;;15.40;10.82;;;;;;;;;;5011567;28;20112;-66
2022/07/11 14:45:49;;;;;;;14.48;10.25;;;;;;;;;;5009964;28;20025;-66
2022/07/11 14:48:14;;;;;;;17.20;11.27;;;;;;;;;;4999334;28;20022;-67
2022/07/11 14:50:39;;;;;;;15.93;11.40;;;;;;;;;;5009532;28;20069;-67
2022/07/11 14:53:05;;;;;;;20.13;10.90;;;;;;;;;;5021138;28;20281;-66